createdAt,value
2023-04-07T00:00:23.834Z,7.40
2023-04-07T00:02:50.644Z,7.30
2023-04-07T00:05:17.417Z,7.30
2023-04-07T00:07:55.199Z,7.30
2023-04-07T00:10:23.542Z,7.30
2023-04-07T00:12:50.274Z,7.30
2023-04-07T00:15:16.985Z,7.30
2023-04-07T00:17:43.705Z,7.30
2023-04-07T00:20:10.830Z,7.20
2023-04-07T00:22:37.647Z,7.20
2023-04-07T00:25:04.662Z,7.10
2023-04-07T00:27:31.872Z,7.10
2023-04-07T00:29:58.578Z,7.10
2023-04-07T00:32:25.349Z,7.00
2023-04-07T00:34:52.032Z,7.00
2023-04-07T00:37:19.265Z,6.90
2023-04-07T00:39:46.619Z,6.90
2023-04-07T00:42:13.350Z,6.80
2023-04-07T00:44:40.302Z,6.80
2023-04-07T00:47:07.104Z,6.80
2023-04-07T00:49:33.742Z,6.80
2023-04-07T00:52:00.407Z,6.70
2023-04-07T00:54:27.255Z,6.70
2023-04-07T00:56:53.957Z,6.70
2023-04-07T00:59:21.935Z,6.70
2023-04-07T01:02:00.290Z,6.70
2023-04-07T01:04:35.551Z,6.60
2023-04-07T01:07:09.069Z,6.40
2023-04-07T01:10:04.995Z,6.40
2023-04-07T01:12:52.303Z,6.30
2023-04-07T01:15:22.748Z,6.30
2023-04-07T01:18:00.971Z,6.10
2023-04-07T01:20:27.858Z,6.10
2023-04-07T01:23:02.226Z,6.00
2023-04-07T01:25:59.663Z,5.90
2023-04-07T01:28:35.440Z,5.90
2023-04-07T01:31:02.232Z,5.90
2023-04-07T01:33:29.217Z,6.00
2023-04-07T01:35:55.872Z,5.80
2023-04-07T01:38:22.570Z,5.80
2023-04-07T01:40:49.240Z,5.90
2023-04-07T01:43:15.873Z,6.00
2023-04-07T01:45:42.737Z,6.10
2023-04-07T01:48:09.568Z,6.10
2023-04-07T01:50:36.518Z,6.20
2023-04-07T01:53:03.441Z,6.30
2023-04-07T01:55:30.369Z,6.30
2023-04-07T01:58:15.328Z,6.30
2023-04-07T02:00:43.373Z,6.40
2023-04-07T02:03:22.951Z,6.50
2023-04-07T02:05:52.412Z,6.50
2023-04-07T02:08:20.264Z,6.60
2023-04-07T02:10:47.940Z,6.60
2023-04-07T02:13:16.926Z,6.60
2023-04-07T02:15:45.230Z,6.60
2023-04-07T02:18:13.489Z,6.60
2023-04-07T02:20:40.583Z,6.60
2023-04-07T02:23:10.345Z,6.60
2023-04-07T02:25:39.700Z,6.60
2023-04-07T02:28:07.013Z,6.70
2023-04-07T02:30:34.222Z,6.70
2023-04-07T02:33:01.144Z,6.70
2023-04-07T02:35:27.909Z,6.70
2023-04-07T02:37:54.688Z,6.70
2023-04-07T02:40:21.381Z,6.70
2023-04-07T02:42:48.103Z,6.80
2023-04-07T02:45:14.929Z,6.80
2023-04-07T02:47:41.640Z,6.80
2023-04-07T02:50:08.645Z,6.80
2023-04-07T02:52:35.913Z,6.90
2023-04-07T02:55:07.199Z,6.90
2023-04-07T02:57:34.208Z,6.90
2023-04-07T03:00:04.572Z,6.90
2023-04-07T03:02:47.284Z,6.90
2023-04-07T03:05:15.572Z,6.90
2023-04-07T03:07:50.323Z,7.00
2023-04-07T03:10:20.386Z,7.00
2023-04-07T03:12:47.112Z,6.90
2023-04-07T03:15:13.928Z,7.00
2023-04-07T03:17:45.953Z,7.00
2023-04-07T03:20:13.166Z,7.00
2023-04-07T03:22:39.982Z,6.90
2023-04-07T03:25:13.308Z,7.00
2023-04-07T03:27:40.104Z,7.00
2023-04-07T03:30:09.982Z,7.00
2023-04-07T03:32:36.691Z,7.00
2023-04-07T03:35:03.622Z,7.00
2023-04-07T03:37:30.414Z,7.00
2023-04-07T03:39:57.236Z,7.00
2023-04-07T03:42:26.891Z,7.00
2023-04-07T03:45:00.045Z,7.00
2023-04-07T03:47:27.100Z,7.00
2023-04-07T03:49:58.146Z,7.10
2023-04-07T03:52:24.844Z,7.10
2023-04-07T03:54:56.897Z,7.10
2023-04-07T03:57:29.371Z,7.10
2023-04-07T03:59:56.246Z,7.10
2023-04-07T04:02:23.321Z,7.10
2023-04-07T04:04:52.941Z,7.10
2023-04-07T04:07:21.862Z,7.10
2023-04-07T04:09:51.111Z,7.10
2023-04-07T04:12:18.813Z,7.10
2023-04-07T04:14:57.184Z,7.10
2023-04-07T04:17:25.287Z,7.00
2023-04-07T04:19:52.065Z,7.00
2023-04-07T04:22:24.787Z,7.00
2023-04-07T04:24:54.724Z,7.10
2023-04-07T04:27:23.754Z,7.10
2023-04-07T04:29:56.502Z,7.10
2023-04-07T04:32:33.624Z,7.10
2023-04-07T04:35:01.088Z,7.10
2023-04-07T04:37:30.441Z,7.10
2023-04-07T04:39:57.505Z,7.10
2023-04-07T04:42:26.902Z,7.00
2023-04-07T04:44:56.176Z,7.10
2023-04-07T04:47:23.526Z,7.10
2023-04-07T04:49:51.104Z,7.10
2023-04-07T04:52:18.089Z,7.10
2023-04-07T04:54:47.461Z,7.10
2023-04-07T04:57:14.637Z,7.10
2023-04-07T04:59:42.384Z,7.00
2023-04-07T05:02:09.678Z,7.10
2023-04-07T05:04:36.799Z,7.00
2023-04-07T05:07:20.294Z,7.00
2023-04-07T05:09:47.200Z,6.90
2023-04-07T05:12:16.145Z,6.90
2023-04-07T05:14:47.977Z,6.90
2023-04-07T05:17:14.762Z,6.80
2023-04-07T05:19:41.595Z,6.90
2023-04-07T05:22:18.082Z,6.90
2023-04-07T05:24:49.176Z,6.80
2023-04-07T05:27:15.941Z,6.80
2023-04-07T05:29:43.360Z,6.80
2023-04-07T05:32:19.768Z,6.80
2023-04-07T05:34:47.271Z,6.80
2023-04-07T05:37:14.723Z,6.70
2023-04-07T05:39:42.035Z,6.70
2023-04-07T05:42:12.245Z,6.70
2023-04-07T05:44:39.994Z,6.70
2023-04-07T05:47:09.165Z,6.60
2023-04-07T05:49:37.537Z,6.70
2023-04-07T05:52:08.598Z,6.70
2023-04-07T05:54:42.661Z,6.80
2023-04-07T05:57:12.403Z,6.80
2023-04-07T05:59:44.121Z,6.80
2023-04-07T06:02:11.782Z,6.80
2023-04-07T06:04:39.489Z,6.80
2023-04-07T06:07:07.377Z,6.80
2023-04-07T06:09:34.156Z,6.90
2023-04-07T06:12:01.712Z,6.90
2023-04-07T06:14:29.099Z,6.90
2023-04-07T06:16:56.303Z,6.90
2023-04-07T06:19:24.569Z,7.00
2023-04-07T06:21:51.268Z,7.00
2023-04-07T06:24:17.972Z,7.10
2023-04-07T06:26:44.780Z,7.10
2023-04-07T06:29:11.514Z,7.10
2023-04-07T06:31:38.224Z,7.20
2023-04-07T06:34:04.926Z,7.20
2023-04-07T06:36:32.966Z,7.20
2023-04-07T06:38:59.707Z,7.20
2023-04-07T06:41:26.843Z,7.30
2023-04-07T06:43:53.929Z,7.40
2023-04-07T06:46:21.025Z,7.40
2023-04-07T06:48:47.969Z,7.40
2023-04-07T06:51:14.669Z,7.40
2023-04-07T06:53:41.781Z,7.50
2023-04-07T06:56:09.702Z,7.60
2023-04-07T06:58:36.849Z,7.60
2023-04-07T07:01:04.007Z,7.60
2023-04-07T07:03:31.608Z,7.60
2023-04-07T07:06:01.569Z,7.70
2023-04-07T07:08:28.442Z,7.70
2023-04-07T07:10:55.208Z,7.70
2023-04-07T07:13:24.219Z,7.70
2023-04-07T07:15:51.678Z,7.80
2023-04-07T07:18:18.817Z,7.80
2023-04-07T07:20:45.950Z,7.80
2023-04-07T07:23:12.754Z,7.80
2023-04-07T07:25:39.529Z,7.80
2023-04-07T07:28:06.286Z,7.80
2023-04-07T07:30:32.968Z,7.80
2023-04-07T07:32:59.834Z,7.80
2023-04-07T07:35:26.618Z,7.80
2023-04-07T07:37:53.315Z,7.80
2023-04-07T07:40:20.297Z,7.80
2023-04-07T07:42:47.774Z,7.80
2023-04-07T07:45:14.538Z,7.70
2023-04-07T07:47:41.829Z,7.60
2023-04-07T07:50:08.680Z,7.60
2023-04-07T07:52:35.498Z,7.60
2023-04-07T07:55:02.374Z,7.60
2023-04-07T07:57:30.889Z,7.60
2023-04-07T07:59:57.633Z,7.60
2023-04-07T08:02:29.658Z,7.60
2023-04-07T08:04:57.339Z,7.60
2023-04-07T08:07:24.103Z,7.60
2023-04-07T08:09:50.793Z,7.50
2023-04-07T08:12:17.473Z,7.50
2023-04-07T08:14:44.222Z,7.50
2023-04-07T08:17:11.117Z,7.50
2023-04-07T08:19:38.098Z,7.60
2023-04-07T08:22:04.778Z,7.50
2023-04-07T08:24:31.448Z,7.50
2023-04-07T08:26:58.181Z,7.50
2023-04-07T08:29:24.951Z,7.60
2023-04-07T08:31:51.672Z,7.50
2023-04-07T08:34:20.663Z,7.60
2023-04-07T08:36:47.415Z,7.60
2023-04-07T08:39:14.112Z,7.60
2023-04-07T08:41:42.292Z,7.70
2023-04-07T08:44:11.675Z,7.80
2023-04-07T08:46:39.235Z,7.80
2023-04-07T08:49:09.255Z,7.80
2023-04-07T08:51:35.965Z,7.80
2023-04-07T08:54:10.365Z,7.80
2023-04-07T08:56:41.115Z,7.80
2023-04-07T08:59:08.858Z,7.90
2023-04-07T09:01:36.334Z,7.90
2023-04-07T09:04:03.920Z,7.90
2023-04-07T09:06:31.982Z,7.90
2023-04-07T09:08:59.273Z,7.90
2023-04-07T09:11:29.378Z,7.90
2023-04-07T09:13:56.518Z,7.90
2023-04-07T09:16:25.826Z,7.90
2023-04-07T09:18:53.257Z,7.90
2023-04-07T09:21:20.225Z,7.90
2023-04-07T09:23:47.648Z,8.00
2023-04-07T09:26:22.763Z,8.00
2023-04-07T09:28:54.109Z,8.10
2023-04-07T09:31:26.171Z,8.10
2023-04-07T09:33:53.449Z,8.20
2023-04-07T09:36:20.404Z,8.20
2023-04-07T09:38:47.140Z,8.20
2023-04-07T09:41:15.868Z,8.20
2023-04-07T09:43:47.006Z,8.30
2023-04-07T09:46:18.005Z,8.30
2023-04-07T09:48:45.615Z,8.40
2023-04-07T09:51:17.036Z,8.50
2023-04-07T09:53:45.226Z,8.50
2023-04-07T09:56:12.393Z,8.60
2023-04-07T09:58:42.341Z,8.70
2023-04-07T10:01:12.282Z,8.80
2023-04-07T10:03:39.095Z,8.90
2023-04-07T10:06:06.783Z,8.90
2023-04-07T10:08:35.242Z,8.80
2023-04-07T10:11:03.375Z,8.80
2023-04-07T10:13:31.388Z,8.80
2023-04-07T10:15:58.858Z,8.80
2023-04-07T10:18:28.644Z,8.90
2023-04-07T10:20:55.730Z,9.00
2023-04-07T10:23:29.174Z,9.10
2023-04-07T10:25:58.882Z,9.20
2023-04-07T10:28:26.371Z,9.20
2023-04-07T10:30:53.110Z,9.30
2023-04-07T10:33:49.948Z,9.40
2023-04-07T10:36:22.641Z,9.50
2023-04-07T10:39:07.851Z,9.50
2023-04-07T10:41:41.354Z,9.50
2023-04-07T10:44:09.511Z,9.40
2023-04-07T10:46:45.554Z,9.40
2023-04-07T10:49:13.397Z,9.30
2023-04-07T10:51:40.404Z,9.30
2023-04-07T10:54:22.905Z,9.20
2023-04-07T10:57:10.846Z,9.30
2023-04-07T10:59:43.409Z,9.30
2023-04-07T11:02:17.336Z,9.40
2023-04-07T11:04:46.263Z,9.40
2023-04-07T11:07:13.996Z,9.40
2023-04-07T11:09:41.350Z,9.50
2023-04-07T11:12:08.262Z,9.50
2023-04-07T11:14:37.492Z,9.60
2023-04-07T11:17:04.582Z,9.60
2023-04-07T11:19:33.954Z,9.60
2023-04-07T11:24:49.395Z,9.60
2023-04-07T11:27:16.549Z,9.70
2023-04-07T11:29:44.050Z,9.80
2023-04-07T11:32:10.810Z,9.90
2023-04-07T11:34:37.496Z,10.10
2023-04-07T11:37:22.827Z,10.40
2023-04-07T11:39:56.150Z,10.90
2023-04-07T11:42:35.727Z,11.10
2023-04-07T11:45:02.463Z,11.10
2023-04-07T11:47:43.187Z,11.10
2023-04-07T11:50:11.256Z,10.80
2023-04-07T11:52:54.353Z,10.70
2023-04-07T11:55:22.677Z,10.50
2023-04-07T11:57:51.252Z,10.40
2023-04-07T12:00:18.490Z,10.40
2023-04-07T12:02:45.502Z,10.30
2023-04-07T12:05:12.689Z,10.20
2023-04-07T12:07:41.711Z,10.20
2023-04-07T12:10:21.476Z,10.20
2023-04-07T12:12:48.887Z,10.30
2023-04-07T12:15:15.815Z,10.30
2023-04-07T12:17:49.502Z,10.60
2023-04-07T12:20:16.332Z,10.60
2023-04-07T12:22:42.978Z,10.70
2023-04-07T12:25:09.709Z,11.30
2023-04-07T12:27:43.243Z,12.20
2023-04-07T12:30:11.124Z,13.00
2023-04-07T12:32:38.068Z,13.60
2023-04-07T12:35:05.999Z,14.00
2023-04-07T12:37:32.979Z,13.70
2023-04-07T12:40:00.366Z,14.10
2023-04-07T12:42:27.473Z,14.60
2023-04-07T12:44:54.123Z,14.50
2023-04-07T12:47:20.949Z,14.30
2023-04-07T12:49:49.684Z,14.00
2023-04-07T12:52:16.996Z,13.70
2023-04-07T12:54:45.208Z,13.40
2023-04-07T12:57:12.144Z,13.40
2023-04-07T12:59:38.826Z,13.40
2023-04-07T13:02:06.048Z,13.30
2023-04-07T13:04:32.959Z,12.90
2023-04-07T13:07:00.883Z,12.50
2023-04-07T13:09:27.598Z,12.30
2023-04-07T13:11:54.657Z,12.20
2023-04-07T13:14:21.528Z,11.90
2023-04-07T13:16:48.242Z,11.70
2023-04-07T13:19:19.759Z,11.60
2023-04-07T13:21:48.151Z,11.60
2023-04-07T13:24:27.464Z,11.40
2023-04-07T13:26:59.724Z,11.30
2023-04-07T13:29:30.598Z,11.30
2023-04-07T13:32:07.965Z,11.30
2023-04-07T13:34:35.438Z,11.30
2023-04-07T13:37:05.499Z,11.30
2023-04-07T13:39:32.462Z,11.30
2023-04-07T13:41:59.349Z,11.30
2023-04-07T13:44:27.232Z,11.30
2023-04-07T13:46:54.525Z,11.30
2023-04-07T13:49:22.405Z,11.30
2023-04-07T13:51:49.228Z,11.30
2023-04-07T13:54:17.189Z,11.30
2023-04-07T13:56:43.974Z,11.40
2023-04-07T13:59:10.954Z,11.60
2023-04-07T14:01:39.036Z,11.70
2023-04-07T14:04:06.649Z,11.70
2023-04-07T14:06:33.516Z,11.70
2023-04-07T14:09:00.222Z,11.70
2023-04-07T14:11:27.167Z,11.80
2023-04-07T14:13:55.119Z,11.70
2023-04-07T14:16:22.828Z,11.60
2023-04-07T14:18:51.727Z,11.60
2023-04-07T14:21:18.511Z,11.60
2023-04-07T14:23:45.253Z,11.60
2023-04-07T14:26:12.544Z,11.60
2023-04-07T14:28:39.442Z,11.60
2023-04-07T14:31:06.751Z,11.70
2023-04-07T14:33:33.535Z,11.70
2023-04-07T14:36:00.237Z,11.60
2023-04-07T14:38:27.179Z,11.60
2023-04-07T14:40:53.966Z,11.60
2023-04-07T14:43:20.700Z,11.60
2023-04-07T14:45:47.617Z,11.60
2023-04-07T14:48:14.272Z,11.60
2023-04-07T14:50:41.203Z,11.60
2023-04-07T14:53:08.091Z,11.60
2023-04-07T14:55:34.976Z,11.60
2023-04-07T14:58:01.674Z,11.60
2023-04-07T15:00:28.785Z,11.70
2023-04-07T15:02:56.065Z,11.60
2023-04-07T15:05:23.089Z,11.60
2023-04-07T15:08:02.313Z,11.70
2023-04-07T15:10:30.095Z,11.70
2023-04-07T15:12:56.828Z,11.70
2023-04-07T15:15:24.425Z,11.70
2023-04-07T15:17:51.192Z,11.70
2023-04-07T15:20:17.978Z,11.70
2023-04-07T15:22:44.717Z,11.70
2023-04-07T15:25:11.438Z,11.70
2023-04-07T15:27:38.142Z,11.80
2023-04-07T15:30:05.449Z,11.90
2023-04-07T15:32:32.291Z,11.90
2023-04-07T15:34:59.203Z,11.80
2023-04-07T15:37:26.359Z,11.70
2023-04-07T15:57:38.203Z,11.60
2023-04-07T16:00:05.659Z,11.50
2023-04-07T16:02:33.047Z,11.40
2023-04-07T16:04:59.930Z,11.30
2023-04-07T16:07:27.381Z,11.30
2023-04-07T16:09:54.077Z,11.30
2023-04-07T16:12:22.256Z,11.20
2023-04-07T16:14:50.216Z,11.10
2023-04-07T16:17:17.045Z,11.10
2023-04-07T16:19:43.803Z,11.00
2023-04-07T16:22:10.485Z,11.00
2023-04-07T16:24:37.163Z,11.00
2023-04-07T16:27:04.556Z,11.00
2023-04-07T16:29:31.395Z,11.00
2023-04-07T16:31:58.151Z,11.00
2023-04-07T16:34:24.997Z,11.00
2023-04-07T16:36:51.782Z,11.00
2023-04-07T16:39:18.694Z,10.90
2023-04-07T16:41:45.499Z,10.90
2023-04-07T16:44:12.214Z,10.90
2023-04-07T16:46:39.031Z,10.90
2023-04-07T16:49:05.843Z,10.90
2023-04-07T16:51:32.665Z,10.90
2023-04-07T16:53:59.354Z,10.80
2023-04-07T16:56:26.166Z,10.80
2023-04-07T16:58:52.909Z,10.80
2023-04-07T17:01:19.650Z,10.80
2023-04-07T17:03:48.237Z,10.80
2023-04-07T17:06:16.453Z,10.80
2023-04-07T17:08:43.912Z,10.80
2023-04-07T17:11:11.722Z,10.70
2023-04-07T17:13:39.996Z,10.80
2023-04-07T17:16:07.019Z,10.80
2023-04-07T17:18:33.842Z,10.80
2023-04-07T17:21:00.785Z,10.70
2023-04-07T17:23:28.281Z,10.70
2023-04-07T17:25:55.179Z,10.70
2023-04-07T17:28:21.930Z,10.70
2023-04-07T17:30:48.917Z,10.70
2023-04-07T17:33:15.924Z,10.70
2023-04-07T17:35:42.712Z,10.60
2023-04-07T17:38:09.465Z,10.60
2023-04-07T17:40:36.217Z,10.60
2023-04-07T17:43:02.899Z,10.60
2023-04-07T17:45:29.679Z,10.60
2023-04-07T17:47:56.610Z,10.50
2023-04-07T17:50:23.388Z,10.50
2023-04-07T17:52:51.990Z,10.40
2023-04-07T17:55:19.058Z,10.40
2023-04-07T17:57:45.921Z,10.30
2023-04-07T18:00:13.016Z,10.30
2023-04-07T18:02:40.405Z,10.20
2023-04-07T18:05:08.110Z,10.20
2023-04-07T18:07:34.757Z,10.20
2023-04-07T18:10:01.962Z,10.10
2023-04-07T18:12:29.492Z,10.00
2023-04-07T18:14:56.198Z,10.00
2023-04-07T18:17:22.901Z,9.90
2023-04-07T18:19:49.690Z,9.90
2023-04-07T18:22:16.417Z,9.80
2023-04-07T18:24:43.248Z,9.70
2023-04-07T18:27:10.079Z,9.70
2023-04-07T18:29:36.825Z,9.60
2023-04-07T18:32:03.505Z,9.60
2023-04-07T18:34:30.441Z,9.60
2023-04-07T18:36:57.166Z,9.50
2023-04-07T18:39:27.724Z,9.50
2023-04-07T18:41:55.012Z,9.40
2023-04-07T18:44:21.693Z,9.40
2023-04-07T18:46:48.482Z,9.40
2023-04-07T18:49:15.401Z,9.30
2023-04-07T18:51:44.431Z,9.30
2023-04-07T18:54:12.304Z,9.20
2023-04-07T18:56:39.036Z,9.20
2023-04-07T18:59:07.859Z,9.20
2023-04-07T19:01:34.729Z,9.10
2023-04-07T19:04:01.645Z,9.10
2023-04-07T19:06:30.347Z,9.00
2023-04-07T19:08:57.672Z,9.10
2023-04-07T19:11:24.678Z,9.00
2023-04-07T19:13:53.200Z,9.00
2023-04-07T19:16:21.762Z,8.90
2023-04-07T19:18:48.450Z,8.90
2023-04-07T19:21:15.223Z,8.80
2023-04-07T19:23:42.157Z,8.80
2023-04-07T19:26:12.846Z,8.70
2023-04-07T19:28:41.059Z,8.70
2023-04-07T19:31:08.541Z,8.70
2023-04-07T19:33:35.501Z,8.70
2023-04-07T19:36:02.690Z,8.70
2023-04-07T19:38:29.377Z,8.60
2023-04-07T19:40:56.100Z,8.70
2023-04-07T19:43:22.762Z,8.60
2023-04-07T19:45:49.491Z,8.60
2023-04-07T19:48:17.078Z,8.60
2023-04-07T19:50:46.910Z,8.50
2023-04-07T19:53:16.697Z,8.50
2023-04-07T19:55:44.127Z,8.50
2023-04-07T19:58:11.176Z,8.40
2023-04-07T20:00:38.890Z,8.40
2023-04-07T20:03:05.888Z,8.40
2023-04-07T20:05:32.979Z,8.30
2023-04-07T20:08:00.933Z,8.30
2023-04-07T20:10:27.721Z,8.30
2023-04-07T20:12:55.103Z,8.30
2023-04-07T20:15:24.440Z,8.30
2023-04-07T20:17:51.631Z,8.20
2023-04-07T20:20:18.633Z,8.20
2023-04-07T20:22:45.312Z,8.20
2023-04-07T20:25:11.994Z,8.20
2023-04-07T20:27:39.709Z,8.10
2023-04-07T20:30:07.089Z,8.10
2023-04-07T20:32:33.822Z,8.10
2023-04-07T20:35:00.658Z,8.10
2023-04-07T20:37:27.732Z,8.00
2023-04-07T20:39:55.514Z,8.00
2023-04-07T20:42:22.330Z,7.90
2023-04-07T20:44:49.281Z,7.90
2023-04-07T20:47:16.580Z,7.90
2023-04-07T20:49:43.758Z,7.80
2023-04-07T20:52:10.567Z,7.70
2023-04-07T20:54:37.334Z,7.60
2023-04-07T20:57:04.041Z,7.40
2023-04-07T20:59:31.867Z,7.30
2023-04-07T21:01:58.761Z,7.30
2023-04-07T21:04:25.859Z,7.30
2023-04-07T21:06:52.736Z,7.20
2023-04-07T21:09:19.528Z,7.20
2023-04-07T21:11:46.280Z,7.10
2023-04-07T21:14:12.940Z,7.10
2023-04-07T21:16:39.758Z,6.90
2023-04-07T21:19:06.474Z,6.90
2023-04-07T21:21:33.212Z,6.80
2023-04-07T21:24:00.087Z,6.80
2023-04-07T21:26:27.173Z,6.60
2023-04-07T21:28:54.046Z,6.60
2023-04-07T21:31:24.327Z,6.60
2023-04-07T21:33:52.614Z,6.50
2023-04-07T21:36:19.321Z,6.50
2023-04-07T21:38:46.163Z,6.40
2023-04-07T21:41:12.932Z,6.40
2023-04-07T21:43:39.698Z,6.40
2023-04-07T21:46:06.444Z,6.40
2023-04-07T21:48:34.656Z,6.30
2023-04-07T21:51:01.812Z,6.20
2023-04-07T21:53:28.507Z,6.20
2023-04-07T21:55:55.249Z,6.10
2023-04-07T21:58:23.377Z,6.10
2023-04-07T22:00:50.064Z,6.10
2023-04-07T22:03:17.074Z,6.10
2023-04-07T22:05:44.036Z,6.00
2023-04-07T22:08:10.828Z,6.00
2023-04-07T22:10:37.584Z,5.90
2023-04-07T22:13:04.415Z,5.90
2023-04-07T22:15:31.105Z,5.80
2023-04-07T22:17:58.092Z,5.80
2023-04-07T22:20:25.717Z,5.80
2023-04-07T22:22:54.024Z,5.80
2023-04-07T22:25:20.888Z,5.70
2023-04-07T22:27:47.773Z,5.70
2023-04-07T22:30:14.503Z,5.60
2023-04-07T22:32:41.433Z,5.60
2023-04-07T22:35:08.675Z,5.70
2023-04-07T22:37:35.478Z,5.70
2023-04-07T22:40:02.294Z,5.80
2023-04-07T22:42:29.005Z,5.80
2023-04-07T22:44:55.758Z,5.90
2023-04-07T22:47:22.620Z,5.90
2023-04-07T22:49:49.413Z,5.80
2023-04-07T22:52:16.110Z,5.80
2023-04-07T22:54:42.808Z,5.70
2023-04-07T22:57:09.668Z,5.70
2023-04-07T22:59:36.560Z,5.70
2023-04-07T23:02:03.300Z,5.60
2023-04-07T23:04:30.144Z,5.60
2023-04-07T23:06:56.833Z,5.50
2023-04-07T23:09:23.571Z,5.30
2023-04-07T23:11:50.239Z,5.40
2023-04-07T23:14:16.937Z,5.30
2023-04-07T23:16:43.777Z,5.30
2023-04-07T23:19:15.552Z,5.30
2023-04-07T23:21:42.836Z,5.20
2023-04-07T23:24:09.626Z,5.20
2023-04-07T23:26:36.351Z,5.20
2023-04-07T23:29:03.334Z,5.10
2023-04-07T23:31:30.077Z,5.10
2023-04-07T23:33:58.514Z,5.10
2023-04-07T23:36:25.276Z,5.10
2023-04-07T23:38:52.026Z,5.00
2023-04-07T23:41:18.828Z,5.00
2023-04-07T23:43:45.566Z,4.90
2023-04-07T23:46:12.262Z,4.80
2023-04-07T23:48:39.346Z,4.80
2023-04-07T23:51:06.335Z,4.70
2023-04-07T23:53:33.017Z,4.70
2023-04-07T23:55:59.708Z,4.70
2023-04-07T23:58:26.411Z,4.70
